Time;durP1;ratioP1;P1;durP2;ratioP2;P2;SDS_P1;SDS_P2;PMS_P1;PMS_P2;Temp;Humidity;BMP_temperature;BMP_pressure;BME280_temperature;BME280_humidity;BME280_pressure;Samples;Min_cycle;Max_cycle;Signal;HPM_P1;HPM_P2
2021/07/12 00:01:06;;;;;;;;;6.75;6.75;;;;;19.14;67.40;101004.47;4979872;28;45653;-74
2021/07/12 00:03:31;;;;;;;;;7.00;5.00;;;;;19.12;67.29;100985.06;4971093;28;45770;-74
2021/07/12 00:05:56;;;;;;;;;7.00;5.50;;;;;19.08;67.40;100976.44;4981918;28;45259;-74
2021/07/12 00:08:22;;;;;;;;;7.00;6.75;;;;;19.06;67.19;100972.19;4980555;28;45266;-74
2021/07/12 00:10:47;;;;;;;;;6.25;6.25;;;;;19.06;67.26;100973.00;4970102;28;45163;-74
2021/07/12 00:13:13;;;;;;;;;5.00;5.00;;;;;19.04;67.32;100974.09;4969735;28;45511;-74
2021/07/12 00:15:38;;;;;;;;;6.00;6.00;;;;;19.02;67.47;100971.50;4975032;28;45350;-74
2021/07/12 00:18:04;;;;;;;;;6.50;5.00;;;;;18.98;67.44;100967.34;4980585;28;45277;-74
2021/07/12 00:20:29;;;;;;;;;6.50;5.75;;;;;18.97;67.67;100957.63;4972635;28;45561;-74
2021/07/12 00:22:57;;;;;;;;;6.50;6.00;;;;;18.95;67.79;100947.09;4978651;28;45423;-74
2021/07/12 00:25:23;;;;;;;;;8.00;6.25;;;;;18.92;67.41;100939.31;4980177;28;47426;-74
2021/07/12 00:27:48;;;;;;;;;8.75;7.00;;;;;18.91;67.75;100937.59;4970271;28;45386;-74
2021/07/12 00:30:18;;;;;;;;;6.00;6.00;;;;;18.91;67.82;100934.09;4987163;28;45311;-74
2021/07/12 00:32:45;;;;;;;;;5.75;5.00;;;;;18.88;68.50;100938.66;4981428;28;45313;-74
2021/07/12 00:35:12;;;;;;;;;6.25;5.50;;;;;18.84;67.98;100921.16;4968280;28;45501;-74
2021/07/12 00:37:38;;;;;;;;;6.00;6.00;;;;;18.83;67.97;100919.47;4979385;28;45650;-74
2021/07/12 00:40:07;;;;;;;;;6.00;6.00;;;;;18.82;68.28;100932.84;4981611;28;45312;-74
2021/07/12 00:42:32;;;;;;;;;6.25;6.25;;;;;18.82;68.83;100955.03;4979750;28;45423;-74
2021/07/12 05:39:44;;;;;;;;;5.00;5.00;;;;;19.48;68.39;100784.69;5782718;22;45654;-75
2021/07/12 05:42:09;;;;;;;;;6.00;6.00;;;;;19.55;69.24;100789.47;4965177;28;45522;-74
2021/07/12 05:44:34;;;;;;;;;4.25;3.50;;;;;19.58;68.75;100785.75;4962015;28;45446;-73
2021/07/12 05:47:00;;;;;;;;;7.50;6.50;;;;;19.61;68.84;100781.97;4972906;28;45439;-74
2021/07/12 05:49:25;;;;;;;;;4.75;4.75;;;;;19.62;68.67;100781.03;4971046;28;45383;-74
2021/07/12 05:51:50;;;;;;;;;6.00;5.00;;;;;19.65;69.13;100791.50;4980510;28;45313;-74
2021/07/12 05:54:16;;;;;;;;;7.75;6.00;;;;;19.64;69.59;100785.31;4970633;28;45460;-74
2021/07/12 05:56:41;;;;;;;;;6.25;5.50;;;;;19.67;69.09;100794.91;4973382;28;46537;-74
2021/07/12 05:59:06;;;;;;;;;4.50;4.50;;;;;19.66;69.14;100787.84;4961417;28;45455;-74
2021/07/12 06:01:32;;;;;;;;;8.00;6.50;;;;;19.68;69.05;100788.59;4980419;28;45286;-74
2021/07/12 06:03:57;;;;;;;;;5.00;5.00;;;;;19.71;68.52;100784.84;4980399;28;45313;-74
2021/07/12 06:06:22;;;;;;;;;6.00;4.25;;;;;19.73;68.27;100780.28;4949023;28;45427;-74
2021/07/12 06:08:48;;;;;;;;;5.25;5.00;;;;;19.75;68.09;100778.34;4960154;28;45331;-74
2021/07/12 06:11:13;;;;;;;;;9.00;8.25;;;;;19.78;68.64;100776.31;4960579;28;45238;-74
2021/07/12 06:13:38;;;;;;;;;6.50;6.25;;;;;19.84;67.95;100776.81;4959895;28;45242;-74
2021/07/12 06:16:04;;;;;;;;;5.00;5.00;;;;;19.86;68.46;100772.22;4942075;28;45440;-74
2021/07/12 06:18:29;;;;;;;;;5.00;5.00;;;;;19.88;68.98;100775.63;4955662;28;45285;-74
2021/07/12 06:20:55;;;;;;;;;4.25;4.25;;;;;19.85;69.01;100771.38;4961345;28;45455;-74
2021/07/12 06:23:20;;;;;;;;;5.00;5.00;;;;;19.83;69.05;100777.81;4960180;28;45206;-74
2021/07/12 06:25:45;;;;;;;;;6.50;5.00;;;;;19.82;69.33;100776.94;4959300;28;45351;-74
2021/07/12 06:28:11;;;;;;;;;7.50;5.00;;;;;19.79;68.90;100779.81;4975250;28;45230;-74
2021/07/12 06:30:36;;;;;;;;;6.00;5.25;;;;;19.79;69.04;100780.69;4959377;28;45268;-74
2021/07/12 06:33:02;;;;;;;;;5.75;5.25;;;;;19.79;69.03;100779.81;4953987;28;46068;-74
2021/07/12 06:35:28;;;;;;;;;6.00;5.75;;;;;19.78;69.12;100768.31;4963299;28;46997;-74
2021/07/12 06:37:53;;;;;;;;;5.00;5.00;;;;;19.82;69.20;100754.75;4973808;28;45316;-74
2021/07/12 06:40:19;;;;;;;;;6.00;4.00;;;;;19.76;68.38;100751.56;4945020;28;45456;-74
2021/07/12 06:42:44;;;;;;;;;6.25;5.50;;;;;19.76;69.14;100735.56;4952410;28;45598;-74
2021/07/12 06:45:10;;;;;;;;;5.00;5.00;;;;;19.77;69.60;100729.28;4966170;28;46262;-74
2021/07/12 06:47:35;;;;;;;;;7.00;5.00;;;;;19.75;69.44;100733.88;4959850;28;45350;-74
2021/07/12 06:50:01;;;;;;;;;5.00;4.50;;;;;19.73;69.60;100730.44;4966524;28;45437;-74
2021/07/12 06:52:26;;;;;;;;;4.00;4.00;;;;;19.73;68.53;100733.13;4961034;28;45505;-74
2021/07/12 06:54:52;;;;;;;;;7.00;6.00;;;;;19.75;69.49;100730.34;4964163;28;46438;-74
2021/07/12 06:57:17;;;;;;;;;7.00;5.25;;;;;19.75;68.99;100727.69;4957954;28;45328;-74
2021/07/12 06:59:42;;;;;;;;;4.75;4.50;;;;;19.77;69.31;100731.09;4971569;28;45202;-74
2021/07/12 07:02:10;;;;;;;;;5.50;5.50;;;;;19.77;69.30;100728.44;4977925;28;45286;-74
2021/07/12 07:04:36;;;;;;;;;6.00;6.00;;;;;19.75;71.42;100739.22;4955366;28;47500;-75
2021/07/12 07:07:02;;;;;;;;;8.25;6.75;;;;;19.61;71.36;100750.84;4955113;28;45265;-75
2021/07/12 07:09:27;;;;;;;;;8.50;7.75;;;;;19.49;71.33;100759.72;4949592;28;45373;-77
2021/07/12 07:11:53;;;;;;;;;7.25;7.25;;;;;19.42;71.62;100748.66;4953565;28;46231;-77
2021/07/12 07:14:18;;;;;;;;;11.75;9.75;;;;;19.41;71.58;100746.97;4958945;28;45451;-77
2021/07/12 07:16:44;;;;;;;;;10.50;9.25;;;;;19.40;71.54;100742.59;4959716;28;45297;-77
2021/07/12 07:19:09;;;;;;;;;6.00;6.00;;;;;19.37;72.25;100745.47;4962091;28;45484;-77
2021/07/12 07:21:35;;;;;;;;;10.25;7.00;;;;;19.37;72.38;100761.44;4965975;28;45786;-77
2021/07/12 07:24:00;;;;;;;;;7.00;6.75;;;;;19.38;72.36;100773.81;4973417;28;47312;-77
2021/07/12 07:26:25;;;;;;;;;7.75;7.25;;;;;19.36;72.52;100775.75;4960437;28;45259;-77
2021/07/12 07:28:53;;;;;;;;;9.25;7.75;;;;;19.33;72.26;100782.13;4975005;28;45407;-77
2021/07/12 07:31:20;;;;;;;;;6.00;6.00;;;;;19.28;71.45;100786.94;4961208;28;45296;-78
2021/07/12 07:33:45;;;;;;;;;7.00;7.00;;;;;19.21;71.54;100768.69;4974134;28;45367;-78
2021/07/12 07:36:11;;;;;;;;;8.00;6.75;;;;;19.12;71.50;100756.84;4962651;28;45317;-77
2021/07/12 07:38:36;;;;;;;;;7.75;6.50;;;;;19.09;72.10;100769.50;4963348;28;45220;-77
2021/07/12 07:41:02;;;;;;;;;7.00;6.00;;;;;19.08;72.25;100779.34;4960103;28;45454;-79
2021/07/12 07:43:27;;;;;;;;;5.25;5.25;;;;;19.09;72.26;100774.84;4975357;28;47166;-78
2021/07/12 07:45:52;;;;;;;;;7.00;6.75;;;;;19.09;72.30;100775.69;4977795;28;45243;-78
2021/07/12 07:48:18;;;;;;;;;5.75;5.75;;;;;19.12;73.19;100787.94;4966337;28;45567;-79
2021/07/12 07:50:44;;;;;;;;;7.75;5.25;;;;;19.11;72.71;100792.41;4956681;28;45406;-78
2021/07/12 07:53:10;;;;;;;;;7.50;7.25;;;;;19.16;73.43;100783.28;4974494;28;46199;-79
2021/07/12 07:55:36;;;;;;;;;7.25;6.75;;;;;19.19;73.72;100762.63;4961824;28;45767;-79
2021/07/12 07:58:02;;;;;;;;;7.25;6.75;;;;;19.25;73.41;100779.16;4951777;28;45224;-79
2021/07/12 08:00:29;;;;;;;;;5.00;5.00;;;;;19.33;72.67;100782.13;4958811;28;45447;-79
2021/07/12 08:02:55;;;;;;;;;6.50;5.25;;;;;19.39;72.79;100771.03;4958480;28;45606;-78
2021/07/12 08:05:21;;;;;;;;;7.00;5.50;;;;;19.49;72.47;100762.38;4956685;28;45207;-79
2021/07/12 08:07:46;;;;;;;;;6.50;5.00;;;;;19.59;71.77;100758.09;4960139;28;45277;-78
2021/07/12 08:10:14;;;;;;;;;10.00;9.00;;;;;19.66;73.11;100740.72;4960494;28;45871;-79
2021/07/12 08:12:41;;;;;;;;;4.00;4.00;;;;;19.74;71.77;100747.31;4962254;28;46378;-79
2021/07/12 08:15:09;;;;;;;;;9.75;8.00;;;;;19.82;72.88;100752.09;4960759;28;45609;-79
2021/07/12 08:17:35;;;;;;;;;8.00;8.00;;;;;19.89;72.92;100750.69;4971749;28;45274;-79
2021/07/12 08:20:01;;;;;;;;;15.00;10.25;;;;;19.95;72.93;100747.56;4963758;28;45329;-79
2021/07/12 08:22:27;;;;;;;;;9.75;9.00;;;;;20.02;73.39;100748.84;4960782;28;45664;-78
2021/07/12 08:24:52;;;;;;;;;9.25;6.75;;;;;20.09;72.47;100756.38;4956758;28;45239;-79
2021/07/12 08:27:18;;;;;;;;;9.75;8.00;;;;;20.19;72.44;100752.09;4954412;28;45184;-78
2021/07/12 08:29:43;;;;;;;;;8.00;6.00;;;;;20.24;70.67;100754.41;4949436;28;45286;-79
2021/07/12 08:32:08;;;;;;;;;7.75;6.50;;;;;20.29;70.06;100768.28;4957442;28;45399;-78
2021/07/12 08:34:40;;;;;;;;;6.25;6.25;;;;;20.32;70.69;100773.38;4953633;28;45487;-78
2021/07/12 08:37:06;;;;;;;;;8.00;8.00;;;;;20.39;70.61;100778.25;4946703;28;45271;-79
2021/07/12 08:39:31;;;;;;;;;8.25;7.25;;;;;20.42;71.49;100783.38;4973823;28;46089;-78
2021/07/12 08:41:59;;;;;;;;;10.25;8.00;;;;;20.43;69.94;100787.75;4952239;28;45641;-78
2021/07/12 08:44:25;;;;;;;;;8.50;7.50;;;;;20.44;69.60;100794.78;4950276;28;45583;-79
2021/07/12 08:46:50;;;;;;;;;9.75;8.50;;;;;20.50;70.19;100806.81;4961918;28;45233;-78
2021/07/12 08:49:15;;;;;;;;;7.50;6.00;;;;;20.52;69.52;100799.56;4963514;28;46010;-78
2021/07/12 08:51:41;;;;;;;;;12.25;11.00;;;;;20.54;70.24;100789.63;4953470;28;46394;-78
2021/07/12 08:54:07;;;;;;;;;7.00;6.75;;;;;20.54;70.58;100797.63;4953225;28;45734;-78
2021/07/12 08:56:32;;;;;;;;;8.00;8.00;;;;;20.51;70.84;100795.19;4951845;28;45413;-79
2021/07/12 08:58:58;;;;;;;;;8.00;8.00;;;;;20.50;70.82;100799.66;4961462;28;45468;-79
2021/07/12 09:01:23;;;;;;;;;13.50;12.00;;;;;20.51;71.33;100795.19;4961517;28;46231;-79
2021/07/12 09:03:51;;;;;;;;;7.75;7.25;;;;;20.49;71.01;100783.75;4954959;28;45994;-79
2021/07/12 09:06:21;;;;;;;;;8.75;8.75;;;;;20.48;70.62;100793.59;4966275;28;45542;-79
2021/07/12 09:08:55;;;;;;;;;10.50;9.25;;;;;20.46;71.27;100784.84;4961212;28;45309;-80
2021/07/12 09:11:26;;;;;;;;;10.50;7.50;;;;;20.48;71.11;100782.06;4948392;28;46192;-79
2021/07/12 09:13:54;;;;;;;;;8.00;7.25;;;;;20.45;71.40;100792.00;4952626;28;45395;-79
2021/07/12 09:16:33;;;;;;;;;9.00;7.75;;;;;20.44;70.31;100806.31;4966531;28;45286;-79
2021/07/12 09:19:11;;;;;;;;;9.00;8.00;;;;;20.48;70.40;100803.41;4967324;28;45186;-80
2021/07/12 09:21:40;;;;;;;;;7.00;6.75;;;;;20.45;69.64;100799.16;4968875;28;45229;-79
2021/07/12 09:24:27;;;;;;;;;6.25;6.25;;;;;20.52;70.63;100803.06;4948035;28;45615;-79
2021/07/12 09:27:03;;;;;;;;;8.50;7.75;;;;;20.51;69.63;100798.72;4948561;28;45318;-79
2021/07/12 09:29:31;;;;;;;;;8.00;8.00;;;;;20.53;70.08;100806.59;4960653;28;45412;-79
2021/07/12 09:32:02;;;;;;;;;7.00;7.00;;;;;20.55;69.50;100810.00;4949663;28;45368;-80
2021/07/12 09:34:28;;;;;;;;;8.00;8.00;;;;;20.55;70.18;100813.53;4961136;28;45396;-80
2021/07/12 09:36:53;;;;;;;;;7.50;5.75;;;;;20.58;69.86;100825.78;4948299;28;45356;-78
2021/07/12 09:39:23;;;;;;;;;8.00;8.00;;;;;20.58;69.86;100825.78;4962391;28;45419;-77
2021/07/12 09:41:50;;;;;;;;;9.25;8.50;;;;;20.61;69.95;100825.56;4960513;28;45350;-77
2021/07/12 09:44:22;;;;;;;;;7.50;7.50;;;;;20.62;70.89;100832.59;4960472;28;45477;-78
2021/07/12 09:46:47;;;;;;;;;7.75;7.75;;;;;20.62;70.87;100826.44;4961271;28;45241;-78
2021/07/12 09:49:16;;;;;;;;;10.75;7.00;;;;;20.61;71.31;100835.38;4955522;28;45542;-79
2021/07/12 09:51:42;;;;;;;;;8.25;8.25;;;;;20.61;71.73;100830.06;4948668;28;45337;-79
2021/07/12 09:54:29;;;;;;;;;7.50;7.00;;;;;20.60;71.85;100823.84;4956689;28;45517;-79
2021/07/12 09:56:56;;;;;;;;;8.50;8.00;;;;;20.59;71.83;100830.19;4951969;28;45203;-79
2021/07/12 09:59:23;;;;;;;;;7.00;7.00;;;;;20.58;71.61;100831.13;4948420;28;46044;-79
2021/07/12 10:01:53;;;;;;;;;10.75;9.00;;;;;20.58;72.01;100834.66;4949201;28;48156;-79
2021/07/12 10:04:20;;;;;;;;;5.75;5.75;;;;;20.57;71.35;100835.63;4952802;28;45560;-79
2021/07/12 10:06:47;;;;;;;;;10.25;10.00;;;;;20.58;72.05;100834.66;4958787;28;45283;-79
2021/07/12 10:09:14;;;;;;;;;6.75;5.50;;;;;20.60;71.09;100842.53;4946242;28;45557;-79
2021/07/12 10:11:42;;;;;;;;;8.25;8.00;;;;;20.62;71.23;100843.28;4955348;28;45356;-79
2021/07/12 10:14:08;;;;;;;;;7.00;7.00;;;;;20.65;70.92;100839.53;4960806;28;45462;-79
2021/07/12 10:16:34;;;;;;;;;10.50;8.50;;;;;20.69;70.82;100835.69;4956218;28;45436;-79
2021/07/12 10:19:00;;;;;;;;;7.25;5.75;;;;;20.72;70.29;100827.41;4959121;28;45237;-79
2021/07/12 10:21:34;;;;;;;;;9.75;8.75;;;;;20.78;71.80;100826.13;4955584;28;45446;-78
2021/07/12 10:24:00;;;;;;;;;7.25;7.00;;;;;20.85;70.72;100827.34;4960094;28;45254;-78
2021/07/12 10:26:53;;;;;;;;;7.50;7.50;;;;;20.93;69.79;100834.78;4962481;28;45247;-78
2021/07/12 10:29:26;;;;;;;;;5.75;5.00;;;;;20.98;69.69;100823.75;4963059;28;47045;-78
2021/07/12 10:32:06;;;;;;;;;8.75;8.75;;;;;21.04;71.36;100817.13;4975734;28;46229;-78
2021/07/12 10:34:43;;;;;;;;;8.75;7.75;;;;;21.09;70.33;100815.78;4956316;28;45513;-78
2021/07/12 10:37:16;;;;;;;;;10.75;10.25;;;;;21.18;71.66;100818.72;4960543;28;45280;-78
2021/07/12 10:40:06;;;;;;;;;12.75;11.25;;;;;21.25;72.56;100814.59;4976022;28;46206;-78
2021/07/12 10:42:43;;;;;;;;;10.25;7.75;;;;;21.31;71.41;100819.47;4959670;28;46551;-77
2021/07/12 10:45:17;;;;;;;;;8.25;7.75;;;;;21.39;70.58;100812.66;4960130;28;45254;-78
2021/07/12 10:47:49;;;;;;;;;15.00;13.50;;;;;21.44;71.18;100811.34;4959267;28;45277;-77
2021/07/12 10:50:34;;;;;;;;;9.00;9.00;;;;;21.47;71.27;100804.91;4952650;28;45341;-77
2021/07/12 10:53:23;;;;;;;;;7.00;7.00;;;;;21.48;70.70;100802.09;4959636;28;45363;-78
2021/07/12 10:55:57;;;;;;;;;11.75;9.50;;;;;21.51;70.49;100800.19;4944915;28;45288;-78
2021/07/12 10:58:26;;;;;;;;;11.50;11.50;;;;;21.53;71.48;100792.88;4968417;28;45435;-78
2021/07/12 11:00:53;;;;;;;;;8.50;8.50;;;;;21.55;70.20;100783.78;4962096;28;45154;-78
2021/07/12 11:03:40;;;;;;;;;10.00;8.50;;;;;21.60;71.42;100780.72;4982558;28;45454;-78
2021/07/12 11:06:27;;;;;;;;;11.75;10.00;;;;;21.63;71.19;100785.81;4955711;28;45630;-77
2021/07/12 11:08:56;;;;;;;;;12.50;10.25;;;;;21.65;71.09;100783.03;4969296;28;45514;-78
2021/07/12 11:11:22;;;;;;;;;7.75;7.75;;;;;21.62;69.92;100769.91;4974418;28;47163;-77
2021/07/12 11:13:58;;;;;;;;;9.75;9.25;;;;;21.61;71.95;100763.69;4975382;28;45920;-78
2021/07/12 11:16:26;;;;;;;;;10.00;8.25;;;;;21.63;69.72;100767.09;4977348;28;45604;-78
2021/07/12 11:18:53;;;;;;;;;10.00;7.75;;;;;21.68;68.87;100764.06;4952309;28;45476;-76
2021/07/12 11:21:34;;;;;;;;;9.25;7.75;;;;;21.68;68.86;100764.91;4966838;28;45463;-78
2021/07/12 11:24:23;;;;;;;;;9.00;7.75;;;;;21.70;69.24;100764.78;4965666;28;45434;-78
2021/07/12 11:26:56;;;;;;;;;7.00;7.00;;;;;21.70;68.40;100756.78;4972356;28;45496;-78
2021/07/12 11:29:21;;;;;;;;;10.00;9.00;;;;;21.68;68.25;100758.72;4954186;28;45353;-78
2021/07/12 11:32:11;;;;;;;;;7.75;5.75;;;;;21.67;68.22;100754.34;4980804;28;46179;-78
2021/07/12 11:34:51;;;;;;;;;5.50;5.50;;;;;21.66;68.34;100756.16;4980608;28;47340;-77
2021/07/12 11:37:27;;;;;;;;;6.50;6.50;;;;;21.63;68.16;100751.03;4969858;28;45711;-78
2021/07/12 11:39:55;;;;;;;;;7.25;7.25;;;;;21.65;67.89;100759.81;4947803;28;45387;-78
2021/07/12 11:42:35;;;;;;;;;8.75;7.75;;;;;21.66;68.24;100750.81;4943829;28;46060;-78
2021/07/12 11:45:15;;;;;;;;;9.75;8.50;;;;;21.68;69.29;100745.34;4972624;28;46324;-78
2021/07/12 11:47:46;;;;;;;;;9.00;7.75;;;;;21.72;70.57;100738.78;4962786;28;45222;-78
2021/07/12 11:50:20;;;;;;;;;6.50;6.00;;;;;21.75;68.17;100735.84;4990821;28;45402;-77
2021/07/12 11:52:57;;;;;;;;;10.00;9.75;;;;;21.78;68.69;100732.09;4973149;28;45779;-78
2021/07/12 11:55:25;;;;;;;;;6.25;6.00;;;;;21.80;68.74;100736.31;4977465;28;47127;-76
2021/07/12 11:57:56;;;;;;;;;9.50;8.50;;;;;21.76;67.60;100729.50;4961561;28;45287;-74
2021/07/12 12:00:31;;;;;;;;;7.00;6.25;;;;;21.73;68.13;100727.06;4960857;28;45420;-76
2021/07/12 12:03:14;;;;;;;;;6.00;6.00;;;;;21.72;66.95;100732.56;4981962;28;45491;-77
2021/07/12 12:05:41;;;;;;;;;5.75;5.25;;;;;21.70;66.95;100730.84;4981323;28;45307;-76
2021/07/12 12:08:08;;;;;;;;;9.00;6.50;;;;;21.66;66.94;100720.53;4966508;28;45624;-77
2021/07/12 12:10:39;;;;;;;;;9.50;7.25;;;;;21.66;66.86;100734.75;4973167;28;45500;-76
2021/07/12 12:13:19;;;;;;;;;10.00;8.25;;;;;21.59;66.36;100746.91;4961320;28;45447;-76
2021/07/12 12:15:51;;;;;;;;;7.25;6.00;;;;;21.50;66.16;100756.53;4962268;28;46279;-77
2021/07/12 12:18:19;;;;;;;;;6.50;6.00;;;;;21.41;66.59;100746.59;4967193;28;45293;-78
2021/07/12 12:20:51;;;;;;;;;6.25;6.00;;;;;21.38;67.56;100755.69;4963483;28;45415;-77
2021/07/12 12:23:23;;;;;;;;;6.75;6.50;;;;;21.39;67.15;100744.00;4962071;28;45594;-77
2021/07/12 12:26:00;;;;;;;;;7.50;6.75;;;;;21.39;67.30;100748.50;4961481;28;46261;-77
2021/07/12 12:29:06;;;;;;;;;7.25;5.75;;;;;21.38;67.45;100752.16;4960627;28;45334;-78
2021/07/12 12:31:32;;;;;;;;;6.25;6.25;;;;;21.34;67.50;100751.53;4975620;28;45515;-78
2021/07/12 12:34:00;;;;;;;;;6.75;6.50;;;;;21.31;67.52;100757.16;4981723;28;45300;-77
2021/07/12 12:36:29;;;;;;;;;8.00;5.50;;;;;21.27;68.33;100751.19;4971470;28;45494;-77
2021/07/12 12:38:59;;;;;;;;;8.25;6.75;;;;;21.28;68.04;100752.91;4967156;28;45269;-78
2021/07/12 12:41:30;;;;;;;;;8.00;6.50;;;;;21.33;67.85;100745.38;4962611;28;45249;-78
2021/07/12 12:44:05;;;;;;;;;3.50;3.50;;;;;21.40;67.59;100745.72;4972734;28;46208;-77
2021/07/12 12:46:38;;;;;;;;;6.00;5.00;;;;;21.46;68.40;100739.88;4958046;28;46248;-77
2021/07/12 12:49:23;;;;;;;;;4.00;4.00;;;;;21.56;67.82;100740.00;4956143;28;45449;-77
2021/07/12 12:51:55;;;;;;;;;5.00;5.00;;;;;21.62;67.87;100737.81;4945528;28;45492;-77
2021/07/12 12:54:22;;;;;;;;;5.25;5.25;;;;;21.64;66.97;100730.50;4951634;28;45584;-77
2021/07/12 12:56:50;;;;;;;;;6.50;6.50;;;;;21.67;66.67;100736.47;4949224;28;45352;-77
2021/07/12 12:59:17;;;;;;;;;5.25;5.25;;;;;21.69;66.50;100745.22;4952672;28;45778;-77
2021/07/12 13:01:46;;;;;;;;;5.00;5.00;;;;;21.69;66.53;100739.00;4939348;28;47031;-77
2021/07/12 13:04:11;;;;;;;;;6.75;6.75;;;;;21.72;66.72;100744.13;4953799;28;45985;-77
2021/07/12 13:06:39;;;;;;;;;6.00;6.00;;;;;21.71;66.75;100750.44;4949505;28;46512;-77
2021/07/12 13:09:06;;;;;;;;;8.00;6.25;;;;;21.68;66.69;100743.50;4947591;28;45410;-77
2021/07/12 13:11:34;;;;;;;;;8.75;6.00;;;;;21.70;66.64;100746.06;4954818;28;45372;-77
2021/07/12 13:13:59;;;;;;;;;8.25;5.25;;;;;21.71;67.18;100739.72;4948257;28;45685;-76
2021/07/12 13:16:28;;;;;;;;;5.75;5.00;;;;;21.75;67.18;100748.38;4946020;28;46357;-77
2021/07/12 13:18:53;;;;;;;;;7.00;5.75;;;;;21.76;66.93;100740.22;4965374;28;45393;-76
2021/07/12 13:21:19;;;;;;;;;8.00;7.00;;;;;21.76;66.56;100734.84;4984656;28;45381;-76
2021/07/12 13:23:48;;;;;;;;;6.50;6.50;;;;;21.78;66.71;100740.09;4951046;28;45349;-76
2021/07/12 13:26:16;;;;;;;;;6.00;6.00;;;;;21.78;66.62;100727.56;4960067;28;45411;-77
2021/07/12 13:28:41;;;;;;;;;10.00;7.00;;;;;21.79;66.83;100720.38;4940391;28;45242;-77
2021/07/12 13:31:07;;;;;;;;;7.25;6.50;;;;;21.83;68.15;100719.16;4938568;28;45573;-77
2021/07/12 13:33:32;;;;;;;;;6.50;5.00;;;;;21.86;67.05;100718.06;4946182;28;45303;-77
2021/07/12 13:35:58;;;;;;;;;7.25;7.25;;;;;21.89;67.38;100728.53;4952800;28;45352;-77
2021/07/12 13:38:24;;;;;;;;;8.25;8.00;;;;;21.91;67.61;100722.09;4949557;28;45404;-76
2021/07/12 13:40:50;;;;;;;;;8.75;5.50;;;;;21.94;68.16;100707.63;4944793;28;46785;-77
2021/07/12 13:43:16;;;;;;;;;6.50;6.00;;;;;22.00;67.01;100716.97;4960042;28;45464;-77
2021/07/12 13:45:42;;;;;;;;;6.25;6.25;;;;;22.03;67.34;100711.34;4951907;28;46122;-77
2021/07/12 13:48:08;;;;;;;;;8.25;6.50;;;;;21.99;67.40;100710.78;4949474;28;45456;-77
2021/07/12 13:50:34;;;;;;;;;6.25;6.25;;;;;22.01;67.48;100711.47;4957546;28;45591;-76
2021/07/12 13:53:02;;;;;;;;;5.75;5.75;;;;;22.00;67.28;100715.13;4955658;28;45373;-76
2021/07/12 13:55:29;;;;;;;;;7.50;6.00;;;;;22.00;67.89;100704.41;4956162;28;48360;-77
2021/07/12 13:57:56;;;;;;;;;6.75;6.75;;;;;22.03;66.97;100711.34;4951927;28;45410;-77
2021/07/12 14:00:27;;;;;;;;;6.25;6.25;;;;;22.06;67.09;100704.91;4958306;28;45384;-77
2021/07/12 14:02:52;;;;;;;;;5.75;5.75;;;;;22.10;66.33;100701.84;4948800;28;46314;-76
2021/07/12 14:05:19;;;;;;;;;8.25;6.75;;;;;22.11;66.21;100694.66;4946488;28;46512;-76
2021/07/12 14:07:45;;;;;;;;;7.75;7.25;;;;;22.12;66.09;100696.38;4974137;28;45561;-76
2021/07/12 14:10:13;;;;;;;;;7.00;6.25;;;;;22.12;67.70;100696.38;4950149;28;45456;-77
2021/07/12 14:12:40;;;;;;;;;8.50;8.50;;;;;22.10;66.38;100683.09;4956517;28;45470;-77
2021/07/12 14:15:08;;;;;;;;;7.25;7.25;;;;;22.08;67.51;100690.41;4960310;28;46393;-76
2021/07/12 14:17:34;;;;;;;;;7.25;7.25;;;;;22.05;66.29;100679.94;4945108;28;45437;-77
2021/07/12 14:19:59;;;;;;;;;9.00;7.50;;;;;22.00;66.35;100679.50;4959156;28;45432;-77
2021/07/12 14:22:25;;;;;;;;;9.25;6.75;;;;;21.95;67.37;100682.56;4954727;28;45542;-76
2021/07/12 14:24:50;;;;;;;;;8.75;7.00;;;;;21.94;66.77;100683.53;4978676;28;45292;-76
2021/07/12 14:27:16;;;;;;;;;6.00;6.00;;;;;21.87;66.58;100685.88;4961132;28;45451;-76
2021/07/12 14:29:45;;;;;;;;;8.25;7.25;;;;;21.85;66.91;100694.97;4945440;28;45625;-76
2021/07/12 14:32:11;;;;;;;;;9.00;8.25;;;;;21.76;68.24;100681.38;4941720;28;45532;-76
2021/07/12 14:34:37;;;;;;;;;10.25;8.25;;;;;21.75;69.15;100690.38;4940363;28;46586;-76
2021/07/12 14:37:02;;;;;;;;;11.75;10.25;;;;;21.77;68.93;100696.44;4950188;28;45407;-77
2021/07/12 14:39:28;;;;;;;;;8.25;8.25;;;;;21.77;69.76;100687.56;4962652;28;45376;-76
2021/07/12 14:41:53;;;;;;;;;10.00;8.00;;;;;21.76;68.18;100685.84;4961122;28;45383;-76
2021/07/12 14:44:18;;;;;;;;;6.75;6.75;;;;;21.78;67.55;100691.97;4957689;28;47053;-76
2021/07/12 14:46:44;;;;;;;;;4.75;4.75;;;;;21.79;66.94;100691.81;4977147;28;45473;-77
2021/07/12 14:49:11;;;;;;;;;7.50;7.50;;;;;21.85;67.20;100686.94;4966773;28;45344;-76
2021/07/12 14:51:37;;;;;;;;;8.50;8.50;;;;;21.95;69.29;100685.25;4962799;28;45359;-76
2021/07/12 14:54:02;;;;;;;;;12.00;8.25;;;;;22.05;70.91;100679.13;4954624;28;45407;-76
2021/07/12 14:56:28;;;;;;;;;7.50;6.50;;;;;22.13;67.42;100684.66;4960348;28;45309;-76
2021/07/12 14:58:53;;;;;;;;;7.25;7.25;;;;;22.20;66.80;100682.34;4954354;28;45452;-76
2021/07/12 15:01:19;;;;;;;;;8.50;7.00;;;;;22.23;66.36;100677.56;4954176;28;46296;-76
2021/07/12 15:03:44;;;;;;;;;8.25;8.25;;;;;22.24;68.04;100690.00;4953071;28;45355;-76
2021/07/12 15:06:09;;;;;;;;;8.50;8.25;;;;;22.24;68.13;100686.47;4962133;28;45236;-76
2021/07/12 15:08:35;;;;;;;;;11.00;9.50;;;;;22.25;68.71;100680.97;4950729;28;45277;-76
2021/07/12 15:11:03;;;;;;;;;9.50;8.25;;;;;22.32;66.69;100680.47;4956574;28;45463;-76
2021/07/12 15:13:29;;;;;;;;;9.25;9.25;;;;;22.33;65.85;100679.47;4970908;28;47244;-76
2021/07/12 15:15:54;;;;;;;;;10.75;10.50;;;;;22.32;65.81;100685.81;4980291;28;45422;-76
2021/07/12 15:18:20;;;;;;;;;9.75;9.00;;;;;22.29;68.14;100692.28;4983239;28;45292;-76
2021/07/12 15:20:46;;;;;;;;;9.00;8.75;;;;;22.31;67.58;100682.28;4979199;28;45539;-76
2021/07/12 15:23:11;;;;;;;;;10.75;10.25;;;;;22.39;67.82;100687.00;4949678;28;46041;-77
2021/07/12 15:25:37;;;;;;;;;9.25;8.25;;;;;22.45;68.64;100685.59;4958806;28;45333;-76
2021/07/12 15:28:02;;;;;;;;;9.25;8.50;;;;;22.52;67.13;100680.59;4959109;28;45477;-76
2021/07/12 15:30:28;;;;;;;;;11.25;9.50;;;;;22.57;65.96;100683.75;4961579;28;45937;-76
2021/07/12 15:32:53;;;;;;;;;9.00;6.00;;;;;22.60;65.60;100680.78;4962813;28;46332;-76
2021/07/12 15:35:19;;;;;;;;;6.25;6.25;;;;;22.59;65.24;100676.41;4957782;28;45286;-76
2021/07/12 15:37:45;;;;;;;;;9.00;7.75;;;;;22.55;65.39;100678.50;4977697;28;45389;-76
2021/07/12 15:40:11;;;;;;;;;6.75;6.75;;;;;22.56;65.63;100676.66;4982121;28;45206;-76
2021/07/12 15:42:37;;;;;;;;;7.75;7.75;;;;;22.58;65.94;100680.91;4982465;28;46607;-75
2021/07/12 15:45:04;;;;;;;;;7.50;7.50;;;;;22.57;65.29;100684.56;4960224;28;45584;-75
2021/07/12 15:47:29;;;;;;;;;10.00;8.00;;;;;22.51;65.06;100678.88;4977579;28;45637;-75
2021/07/12 15:49:55;;;;;;;;;9.00;7.25;;;;;22.45;65.16;100678.44;4973564;28;45369;-76
2021/07/12 15:52:21;;;;;;;;;8.00;8.00;;;;;22.44;65.42;100676.75;4976807;28;46268;-76
2021/07/12 15:54:47;;;;;;;;;7.25;7.25;;;;;22.43;67.23;100667.00;4950312;28;45464;-75
2021/07/12 15:57:13;;;;;;;;;9.75;8.50;;;;;22.47;66.84;100673.78;4962948;28;45298;-76
2021/07/12 15:59:39;;;;;;;;;9.00;9.00;;;;;22.48;65.43;100667.47;4977586;28;47168;-75
2021/07/12 16:02:05;;;;;;;;;7.00;7.00;;;;;22.41;65.35;100660.09;4966232;28;45505;-76
2021/07/12 16:04:34;;;;;;;;;9.50;8.25;;;;;22.43;65.04;100661.66;4951950;28;45733;-76
2021/07/12 16:07:00;;;;;;;;;7.25;6.25;;;;;22.39;65.53;100659.38;4968917;28;45425;-75
2021/07/12 16:09:26;;;;;;;;;11.00;9.75;;;;;22.40;65.21;100666.44;4962131;28;45252;-76
2021/07/12 16:11:51;;;;;;;;;8.50;7.75;;;;;22.37;65.47;100659.50;4962122;28;45386;-75
2021/07/12 16:14:16;;;;;;;;;9.00;7.00;;;;;22.39;65.29;100652.19;4964342;28;45314;-75
2021/07/12 16:16:43;;;;;;;;;8.00;6.25;;;;;22.43;66.22;100650.94;4961387;28;45505;-75
2021/07/12 16:19:09;;;;;;;;;8.50;7.75;;;;;22.48;65.49;100646.03;4962557;28;45407;-76
2021/07/12 16:21:34;;;;;;;;;7.50;7.00;;;;;22.54;65.95;100646.50;4961938;28;46619;-75
2021/07/12 16:23:59;;;;;;;;;9.00;7.50;;;;;22.56;65.64;100644.53;4963919;28;45522;-76